sensor_id;sensor_type;location;lat;lon;timestamp;P1;durP1;ratioP1;P2;durP2;ratioP2
41059;SDS011;26811;53.160;8.202;2023-07-13T00:03:04;44.63;;;17.98;;
41059;SDS011;26811;53.160;8.202;2023-07-13T00:08:05;47.08;;;17.48;;
41059;SDS011;26811;53.160;8.202;2023-07-13T00:13:05;50.38;;;18.33;;
41059;SDS011;26811;53.160;8.202;2023-07-13T00:18:06;52.17;;;18.38;;
41059;SDS011;26811;53.160;8.202;2023-07-13T00:23:07;41.85;;;17.48;;
41059;SDS011;26811;53.160;8.202;2023-07-13T00:28:07;50.88;;;18.15;;
41059;SDS011;26811;53.160;8.202;2023-07-13T00:33:08;45.40;;;17.33;;
41059;SDS011;26811;53.160;8.202;2023-07-13T00:38:09;59.97;;;18.20;;
41059;SDS011;26811;53.160;8.202;2023-07-13T00:43:20;43.92;;;16.88;;
41059;SDS011;26811;53.160;8.202;2023-07-13T00:48:26;43.63;;;16.03;;
41059;SDS011;26811;53.160;8.202;2023-07-13T00:53:30;42.35;;;16.33;;
41059;SDS011;26811;53.160;8.202;2023-07-13T00:58:32;43.67;;;15.47;;
41059;SDS011;26811;53.160;8.202;2023-07-13T01:03:34;48.10;;;15.77;;
41059;SDS011;26811;53.160;8.202;2023-07-13T01:08:35;35.45;;;14.15;;
41059;SDS011;26811;53.160;8.202;2023-07-13T01:13:36;44.72;;;13.50;;
41059;SDS011;26811;53.160;8.202;2023-07-13T01:18:36;56.28;;;13.45;;
41059;SDS011;26811;53.160;8.202;2023-07-13T01:23:38;43.53;;;13.25;;
41059;SDS011;26811;53.160;8.202;2023-07-13T01:28:39;43.78;;;13.63;;
41059;SDS011;26811;53.160;8.202;2023-07-13T01:33:39;74.47;;;13.60;;
41059;SDS011;26811;53.160;8.202;2023-07-13T01:38:41;48.97;;;12.75;;
41059;SDS011;26811;53.160;8.202;2023-07-13T01:43:41;52.55;;;13.93;;
41059;SDS011;26811;53.160;8.202;2023-07-13T01:48:42;45.33;;;12.82;;
41059;SDS011;26811;53.160;8.202;2023-07-13T01:53:42;57.38;;;12.60;;
41059;SDS011;26811;53.160;8.202;2023-07-13T01:58:44;51.42;;;12.05;;
41059;SDS011;26811;53.160;8.202;2023-07-13T02:03:45;50.38;;;13.90;;
41059;SDS011;26811;53.160;8.202;2023-07-13T02:08:46;52.17;;;13.85;;
41059;SDS011;26811;53.160;8.202;2023-07-13T02:13:47;38.70;;;12.98;;
41059;SDS011;26811;53.160;8.202;2023-07-13T02:18:48;46.75;;;14.02;;
41059;SDS011;26811;53.160;8.202;2023-07-13T02:23:52;65.97;;;14.32;;
41059;SDS011;26811;53.160;8.202;2023-07-13T02:28:52;53.05;;;14.45;;
41059;SDS011;26811;53.160;8.202;2023-07-13T02:33:53;40.92;;;13.63;;
41059;SDS011;26811;53.160;8.202;2023-07-13T02:38:53;55.13;;;15.50;;
41059;SDS011;26811;53.160;8.202;2023-07-13T02:43:54;54.03;;;15.00;;
41059;SDS011;26811;53.160;8.202;2023-07-13T02:49:02;57.35;;;14.88;;
41059;SDS011;26811;53.160;8.202;2023-07-13T02:54:04;63.78;;;14.70;;
41059;SDS011;26811;53.160;8.202;2023-07-13T02:59:05;51.58;;;14.00;;
41059;SDS011;26811;53.160;8.202;2023-07-13T03:04:06;48.72;;;14.85;;
41059;SDS011;26811;53.160;8.202;2023-07-13T03:09:06;53.55;;;13.57;;
41059;SDS011;26811;53.160;8.202;2023-07-13T03:14:08;64.65;;;14.55;;
41059;SDS011;26811;53.160;8.202;2023-07-13T03:19:09;54.08;;;14.23;;
41059;SDS011;26811;53.160;8.202;2023-07-13T03:24:09;50.22;;;12.75;;
41059;SDS011;26811;53.160;8.202;2023-07-13T03:29:10;51.13;;;13.02;;
41059;SDS011;26811;53.160;8.202;2023-07-13T03:34:10;51.70;;;14.00;;
41059;SDS011;26811;53.160;8.202;2023-07-13T03:39:11;45.75;;;12.55;;
41059;SDS011;26811;53.160;8.202;2023-07-13T03:44:12;57.33;;;13.07;;
41059;SDS011;26811;53.160;8.202;2023-07-13T03:49:12;59.63;;;11.88;;
41059;SDS011;26811;53.160;8.202;2023-07-13T03:54:13;45.72;;;11.57;;
41059;SDS011;26811;53.160;8.202;2023-07-13T03:59:13;68.95;;;12.13;;
41059;SDS011;26811;53.160;8.202;2023-07-13T04:04:14;55.13;;;11.82;;
41059;SDS011;26811;53.160;8.202;2023-07-13T04:09:15;62.30;;;11.40;;
41059;SDS011;26811;53.160;8.202;2023-07-13T04:14:16;60.85;;;13.38;;
41059;SDS011;26811;53.160;8.202;2023-07-13T04:19:17;60.72;;;11.68;;
41059;SDS011;26811;53.160;8.202;2023-07-13T04:24:18;51.20;;;10.80;;
41059;SDS011;26811;53.160;8.202;2023-07-13T04:29:19;55.83;;;11.93;;
41059;SDS011;26811;53.160;8.202;2023-07-13T04:34:19;57.63;;;10.50;;
41059;SDS011;26811;53.160;8.202;2023-07-13T04:39:20;49.17;;;10.65;;
41059;SDS011;26811;53.160;8.202;2023-07-13T04:44:20;66.45;;;11.38;;
41059;SDS011;26811;53.160;8.202;2023-07-13T04:49:21;44.65;;;11.27;;
41059;SDS011;26811;53.160;8.202;2023-07-13T04:54:21;48.45;;;9.88;;
41059;SDS011;26811;53.160;8.202;2023-07-13T04:59:22;54.00;;;10.60;;
41059;SDS011;26811;53.160;8.202;2023-07-13T05:04:23;67.03;;;12.23;;
41059;SDS011;26811;53.160;8.202;2023-07-13T05:09:23;54.97;;;10.63;;
41059;SDS011;26811;53.160;8.202;2023-07-13T05:14:24;47.92;;;11.52;;
41059;SDS011;26811;53.160;8.202;2023-07-13T05:19:24;52.60;;;11.00;;
41059;SDS011;26811;53.160;8.202;2023-07-13T05:24:25;59.83;;;11.55;;
41059;SDS011;26811;53.160;8.202;2023-07-13T05:29:26;68.25;;;11.30;;
41059;SDS011;26811;53.160;8.202;2023-07-13T05:34:26;48.38;;;11.63;;
41059;SDS011;26811;53.160;8.202;2023-07-13T05:39:27;65.90;;;11.07;;
41059;SDS011;26811;53.160;8.202;2023-07-13T05:44:28;48.50;;;11.25;;
41059;SDS011;26811;53.160;8.202;2023-07-13T05:49:29;88.13;;;12.05;;
41059;SDS011;26811;53.160;8.202;2023-07-13T05:54:30;56.20;;;11.43;;
41059;SDS011;26811;53.160;8.202;2023-07-13T05:59:32;63.25;;;12.70;;
41059;SDS011;26811;53.160;8.202;2023-07-13T06:04:32;56.33;;;12.02;;
41059;SDS011;26811;53.160;8.202;2023-07-13T06:09:33;57.15;;;11.48;;
41059;SDS011;26811;53.160;8.202;2023-07-13T06:14:34;57.45;;;12.10;;
41059;SDS011;26811;53.160;8.202;2023-07-13T06:19:34;62.45;;;11.70;;
41059;SDS011;26811;53.160;8.202;2023-07-13T06:24:35;68.05;;;12.35;;
41059;SDS011;26811;53.160;8.202;2023-07-13T06:29:36;52.85;;;11.65;;
41059;SDS011;26811;53.160;8.202;2023-07-13T06:34:36;63.45;;;12.48;;
41059;SDS011;26811;53.160;8.202;2023-07-13T06:39:37;45.40;;;11.50;;
41059;SDS011;26811;53.160;8.202;2023-07-13T06:44:38;69.22;;;13.68;;
41059;SDS011;26811;53.160;8.202;2023-07-13T06:49:38;53.38;;;11.80;;
41059;SDS011;26811;53.160;8.202;2023-07-13T06:54:39;69.53;;;12.85;;
41059;SDS011;26811;53.160;8.202;2023-07-13T06:59:42;58.63;;;13.00;;
41059;SDS011;26811;53.160;8.202;2023-07-13T07:04:43;71.15;;;13.57;;
41059;SDS011;26811;53.160;8.202;2023-07-13T07:09:44;57.85;;;13.43;;
41059;SDS011;26811;53.160;8.202;2023-07-13T07:14:44;70.93;;;12.98;;
41059;SDS011;26811;53.160;8.202;2023-07-13T07:19:45;55.42;;;12.32;;
41059;SDS011;26811;53.160;8.202;2023-07-13T07:24:46;53.13;;;12.27;;
41059;SDS011;26811;53.160;8.202;2023-07-13T07:29:46;56.15;;;12.70;;
41059;SDS011;26811;53.160;8.202;2023-07-13T07:34:47;53.08;;;12.88;;
41059;SDS011;26811;53.160;8.202;2023-07-13T07:39:48;58.15;;;13.38;;
41059;SDS011;26811;53.160;8.202;2023-07-13T07:44:48;61.60;;;13.63;;
41059;SDS011;26811;53.160;8.202;2023-07-13T07:49:49;52.38;;;13.07;;
41059;SDS011;26811;53.160;8.202;2023-07-13T07:54:49;57.35;;;13.30;;
41059;SDS011;26811;53.160;8.202;2023-07-13T07:59:50;47.40;;;13.27;;
41059;SDS011;26811;53.160;8.202;2023-07-13T08:04:51;49.03;;;12.15;;
41059;SDS011;26811;53.160;8.202;2023-07-13T08:09:53;46.63;;;12.67;;
41059;SDS011;26811;53.160;8.202;2023-07-13T08:14:54;52.08;;;11.18;;
41059;SDS011;26811;53.160;8.202;2023-07-13T08:19:57;56.80;;;13.95;;
41059;SDS011;26811;53.160;8.202;2023-07-13T08:24:58;35.58;;;10.75;;
41059;SDS011;26811;53.160;8.202;2023-07-13T08:29:59;45.28;;;10.20;;
41059;SDS011;26811;53.160;8.202;2023-07-13T08:35:00;39.67;;;10.52;;
41059;SDS011;26811;53.160;8.202;2023-07-13T08:40:00;43.92;;;9.55;;
41059;SDS011;26811;53.160;8.202;2023-07-13T08:50:12;48.38;;;9.10;;
41059;SDS011;26811;53.160;8.202;2023-07-13T08:55:17;40.15;;;8.88;;
41059;SDS011;26811;53.160;8.202;2023-07-13T09:00:21;28.58;;;8.50;;
41059;SDS011;26811;53.160;8.202;2023-07-13T09:05:36;40.50;;;8.25;;
41059;SDS011;26811;53.160;8.202;2023-07-13T09:10:41;42.92;;;8.38;;
41059;SDS011;26811;53.160;8.202;2023-07-13T09:15:45;31.05;;;8.60;;
41059;SDS011;26811;53.160;8.202;2023-07-13T09:20:59;30.80;;;7.78;;
41059;SDS011;26811;53.160;8.202;2023-07-13T09:26:21;27.75;;;7.63;;
41059;SDS011;26811;53.160;8.202;2023-07-13T09:31:24;34.95;;;9.05;;
41059;SDS011;26811;53.160;8.202;2023-07-13T09:36:34;31.65;;;8.60;;
41059;SDS011;26811;53.160;8.202;2023-07-13T09:41:44;27.73;;;9.32;;
41059;SDS011;26811;53.160;8.202;2023-07-13T09:46:51;27.08;;;9.05;;
41059;SDS011;26811;53.160;8.202;2023-07-13T09:52:00;21.27;;;7.85;;
41059;SDS011;26811;53.160;8.202;2023-07-13T10:02:23;28.92;;;8.27;;
41059;SDS011;26811;53.160;8.202;2023-07-13T10:07:25;32.10;;;8.73;;
41059;SDS011;26811;53.160;8.202;2023-07-13T10:12:27;28.08;;;7.90;;
41059;SDS011;26811;53.160;8.202;2023-07-13T10:17:30;30.75;;;9.25;;
41059;SDS011;26811;53.160;8.202;2023-07-13T10:22:50;23.75;;;8.32;;
41059;SDS011;26811;53.160;8.202;2023-07-13T10:28:04;27.17;;;7.93;;
41059;SDS011;26811;53.160;8.202;2023-07-13T10:33:19;18.38;;;7.60;;
41059;SDS011;26811;53.160;8.202;2023-07-13T10:38:22;34.03;;;8.65;;
41059;SDS011;26811;53.160;8.202;2023-07-13T10:48:36;44.85;;;12.00;;
41059;SDS011;26811;53.160;8.202;2023-07-13T10:53:40;47.17;;;13.68;;
41059;SDS011;26811;53.160;8.202;2023-07-13T10:58:42;22.23;;;7.10;;
41059;SDS011;26811;53.160;8.202;2023-07-13T11:08:59;12.23;;;3.55;;
41059;SDS011;26811;53.160;8.202;2023-07-13T11:19:37;14.30;;;4.75;;
41059;SDS011;26811;53.160;8.202;2023-07-13T11:24:49;14.20;;;5.40;;
41059;SDS011;26811;53.160;8.202;2023-07-13T11:30:08;15.63;;;6.40;;
41059;SDS011;26811;53.160;8.202;2023-07-13T11:35:22;19.08;;;6.43;;
41059;SDS011;26811;53.160;8.202;2023-07-13T11:40:26;21.00;;;7.82;;
41059;SDS011;26811;53.160;8.202;2023-07-13T11:45:30;18.20;;;7.78;;
41059;SDS011;26811;53.160;8.202;2023-07-13T11:50:31;24.50;;;8.20;;
41059;SDS011;26811;53.160;8.202;2023-07-13T11:55:32;22.15;;;8.48;;
41059;SDS011;26811;53.160;8.202;2023-07-13T12:00:38;29.42;;;10.02;;
41059;SDS011;26811;53.160;8.202;2023-07-13T12:05:54;26.75;;;9.52;;
41059;SDS011;26811;53.160;8.202;2023-07-13T12:11:11;25.70;;;9.35;;
41059;SDS011;26811;53.160;8.202;2023-07-13T12:21:26;21.25;;;8.05;;
41059;SDS011;26811;53.160;8.202;2023-07-13T12:26:32;21.38;;;9.00;;
41059;SDS011;26811;53.160;8.202;2023-07-13T12:31:37;19.17;;;8.27;;
41059;SDS011;26811;53.160;8.202;2023-07-13T12:37:01;20.35;;;7.38;;
41059;SDS011;26811;53.160;8.202;2023-07-13T12:42:22;20.48;;;7.38;;
41059;SDS011;26811;53.160;8.202;2023-07-13T12:47:28;24.15;;;7.10;;
41059;SDS011;26811;53.160;8.202;2023-07-13T12:52:30;13.48;;;6.13;;
41059;SDS011;26811;53.160;8.202;2023-07-13T12:57:39;13.93;;;6.20;;
41059;SDS011;26811;53.160;8.202;2023-07-13T13:02:51;16.65;;;6.50;;
41059;SDS011;26811;53.160;8.202;2023-07-13T13:07:56;12.07;;;6.28;;
41059;SDS011;26811;53.160;8.202;2023-07-13T13:12:57;21.58;;;7.60;;
41059;SDS011;26811;53.160;8.202;2023-07-13T13:17:59;17.23;;;6.70;;
41059;SDS011;26811;53.160;8.202;2023-07-13T13:22:59;14.63;;;6.78;;
41059;SDS011;26811;53.160;8.202;2023-07-13T13:28:00;14.40;;;6.25;;
41059;SDS011;26811;53.160;8.202;2023-07-13T13:33:01;16.15;;;6.07;;
41059;SDS011;26811;53.160;8.202;2023-07-13T13:38:02;11.73;;;5.85;;
41059;SDS011;26811;53.160;8.202;2023-07-13T13:43:11;13.23;;;5.60;;
41059;SDS011;26811;53.160;8.202;2023-07-13T13:48:16;20.27;;;8.18;;
41059;SDS011;26811;53.160;8.202;2023-07-13T13:53:19;25.58;;;8.38;;
41059;SDS011;26811;53.160;8.202;2023-07-13T13:58:20;13.18;;;6.43;;
41059;SDS011;26811;53.160;8.202;2023-07-13T14:03:21;13.07;;;7.35;;
41059;SDS011;26811;53.160;8.202;2023-07-13T14:08:22;16.35;;;6.80;;
41059;SDS011;26811;53.160;8.202;2023-07-13T14:13:24;15.98;;;6.47;;
41059;SDS011;26811;53.160;8.202;2023-07-13T14:18:28;19.48;;;8.02;;
41059;SDS011;26811;53.160;8.202;2023-07-13T14:23:29;34.08;;;7.13;;
41059;SDS011;26811;53.160;8.202;2023-07-13T14:28:29;13.65;;;4.88;;
41059;SDS011;26811;53.160;8.202;2023-07-13T14:33:30;6.18;;;3.30;;
41059;SDS011;26811;53.160;8.202;2023-07-13T14:38:30;11.48;;;3.80;;
41059;SDS011;26811;53.160;8.202;2023-07-13T14:43:31;16.38;;;4.80;;
41059;SDS011;26811;53.160;8.202;2023-07-13T14:48:31;11.70;;;5.30;;
41059;SDS011;26811;53.160;8.202;2023-07-13T14:53:32;17.70;;;5.47;;
41059;SDS011;26811;53.160;8.202;2023-07-13T14:58:35;26.73;;;6.30;;
41059;SDS011;26811;53.160;8.202;2023-07-13T15:03:36;15.18;;;6.35;;
41059;SDS011;26811;53.160;8.202;2023-07-13T15:08:40;27.48;;;7.57;;
41059;SDS011;26811;53.160;8.202;2023-07-13T15:13:43;18.20;;;7.68;;
41059;SDS011;26811;53.160;8.202;2023-07-13T15:18:48;28.75;;;7.80;;
41059;SDS011;26811;53.160;8.202;2023-07-13T15:23:49;30.00;;;8.27;;
41059;SDS011;26811;53.160;8.202;2023-07-13T15:28:51;25.05;;;7.95;;
41059;SDS011;26811;53.160;8.202;2023-07-13T15:33:52;24.40;;;9.32;;
41059;SDS011;26811;53.160;8.202;2023-07-13T15:38:54;24.40;;;9.15;;
41059;SDS011;26811;53.160;8.202;2023-07-13T15:43:56;19.75;;;9.13;;
41059;SDS011;26811;53.160;8.202;2023-07-13T15:53:59;21.67;;;9.57;;
41059;SDS011;26811;53.160;8.202;2023-07-13T15:59:05;26.80;;;9.63;;
41059;SDS011;26811;53.160;8.202;2023-07-13T16:04:08;23.45;;;9.30;;
41059;SDS011;26811;53.160;8.202;2023-07-13T16:09:10;20.20;;;9.60;;
41059;SDS011;26811;53.160;8.202;2023-07-13T16:14:19;24.95;;;9.70;;
41059;SDS011;26811;53.160;8.202;2023-07-13T16:19:24;24.10;;;9.73;;
41059;SDS011;26811;53.160;8.202;2023-07-13T16:24:28;32.47;;;9.88;;
41059;SDS011;26811;53.160;8.202;2023-07-13T16:29:31;25.17;;;9.23;;
41059;SDS011;26811;53.160;8.202;2023-07-13T16:34:36;23.65;;;8.60;;
41059;SDS011;26811;53.160;8.202;2023-07-13T16:39:37;24.55;;;9.55;;
41059;SDS011;26811;53.160;8.202;2023-07-13T16:44:41;29.40;;;10.57;;
41059;SDS011;26811;53.160;8.202;2023-07-13T16:49:43;30.25;;;10.90;;
41059;SDS011;26811;53.160;8.202;2023-07-13T16:59:49;24.92;;;11.57;;
41059;SDS011;26811;53.160;8.202;2023-07-13T17:04:51;32.17;;;11.55;;
41059;SDS011;26811;53.160;8.202;2023-07-13T17:09:52;35.15;;;12.23;;
41059;SDS011;26811;53.160;8.202;2023-07-13T17:14:53;25.20;;;9.98;;
41059;SDS011;26811;53.160;8.202;2023-07-13T17:19:55;23.38;;;10.65;;
41059;SDS011;26811;53.160;8.202;2023-07-13T17:24:59;26.48;;;12.07;;
41059;SDS011;26811;53.160;8.202;2023-07-13T17:30:00;33.42;;;12.60;;
41059;SDS011;26811;53.160;8.202;2023-07-13T17:35:01;35.40;;;11.60;;
41059;SDS011;26811;53.160;8.202;2023-07-13T17:40:19;28.73;;;11.98;;
41059;SDS011;26811;53.160;8.202;2023-07-13T17:50:28;37.67;;;12.20;;
41059;SDS011;26811;53.160;8.202;2023-07-13T17:55:36;40.22;;;12.77;;
41059;SDS011;26811;53.160;8.202;2023-07-13T18:00:38;30.77;;;12.30;;
41059;SDS011;26811;53.160;8.202;2023-07-13T18:05:41;29.08;;;13.23;;
41059;SDS011;26811;53.160;8.202;2023-07-13T18:10:42;40.10;;;12.65;;
41059;SDS011;26811;53.160;8.202;2023-07-13T18:15:44;39.43;;;13.17;;
41059;SDS011;26811;53.160;8.202;2023-07-13T18:20:46;38.10;;;13.25;;
41059;SDS011;26811;53.160;8.202;2023-07-13T18:25:47;39.70;;;13.65;;
41059;SDS011;26811;53.160;8.202;2023-07-13T18:30:51;47.70;;;14.73;;
41059;SDS011;26811;53.160;8.202;2023-07-13T18:35:55;43.15;;;15.73;;
41059;SDS011;26811;53.160;8.202;2023-07-13T18:40:58;40.45;;;14.60;;
41059;SDS011;26811;53.160;8.202;2023-07-13T18:45:59;40.70;;;14.65;;
41059;SDS011;26811;53.160;8.202;2023-07-13T18:51:10;33.50;;;14.80;;
41059;SDS011;26811;53.160;8.202;2023-07-13T18:56:11;38.53;;;14.70;;
41059;SDS011;26811;53.160;8.202;2023-07-13T19:06:15;37.30;;;15.82;;
41059;SDS011;26811;53.160;8.202;2023-07-13T19:11:16;34.90;;;15.80;;
41059;SDS011;26811;53.160;8.202;2023-07-13T19:16:19;39.85;;;14.60;;
41059;SDS011;26811;53.160;8.202;2023-07-13T19:21:26;44.58;;;15.05;;
41059;SDS011;26811;53.160;8.202;2023-07-13T19:26:34;35.88;;;15.80;;
41059;SDS011;26811;53.160;8.202;2023-07-13T19:31:36;38.55;;;15.00;;
41059;SDS011;26811;53.160;8.202;2023-07-13T19:36:38;42.05;;;16.38;;
41059;SDS011;26811;53.160;8.202;2023-07-13T19:41:40;33.25;;;14.95;;
41059;SDS011;26811;53.160;8.202;2023-07-13T19:46:41;39.92;;;16.02;;
41059;SDS011;26811;53.160;8.202;2023-07-13T19:51:42;35.67;;;15.15;;
41059;SDS011;26811;53.160;8.202;2023-07-13T19:56:43;32.30;;;15.13;;
41059;SDS011;26811;53.160;8.202;2023-07-13T20:01:44;35.45;;;16.45;;
41059;SDS011;26811;53.160;8.202;2023-07-13T20:06:45;46.42;;;15.88;;
41059;SDS011;26811;53.160;8.202;2023-07-13T20:11:46;41.65;;;16.20;;
41059;SDS011;26811;53.160;8.202;2023-07-13T20:16:47;39.75;;;16.50;;
41059;SDS011;26811;53.160;8.202;2023-07-13T20:21:49;39.58;;;16.83;;
41059;SDS011;26811;53.160;8.202;2023-07-13T20:26:49;38.95;;;17.10;;
41059;SDS011;26811;53.160;8.202;2023-07-13T20:31:50;53.33;;;18.23;;
41059;SDS011;26811;53.160;8.202;2023-07-13T20:36:51;46.17;;;18.38;;
41059;SDS011;26811;53.160;8.202;2023-07-13T20:41:53;48.30;;;18.02;;
41059;SDS011;26811;53.160;8.202;2023-07-13T20:46:54;47.45;;;18.23;;
41059;SDS011;26811;53.160;8.202;2023-07-13T20:51:54;53.00;;;16.80;;
41059;SDS011;26811;53.160;8.202;2023-07-13T20:56:58;54.22;;;18.98;;
41059;SDS011;26811;53.160;8.202;2023-07-13T21:01:58;50.65;;;17.65;;
41059;SDS011;26811;53.160;8.202;2023-07-13T21:06:59;44.83;;;17.65;;
41059;SDS011;26811;53.160;8.202;2023-07-13T21:11:59;47.33;;;18.50;;
41059;SDS011;26811;53.160;8.202;2023-07-13T21:17:00;44.05;;;18.50;;
41059;SDS011;26811;53.160;8.202;2023-07-13T21:22:00;44.80;;;18.38;;
41059;SDS011;26811;53.160;8.202;2023-07-13T21:27:01;49.30;;;17.65;;
41059;SDS011;26811;53.160;8.202;2023-07-13T21:32:02;35.92;;;17.83;;
41059;SDS011;26811;53.160;8.202;2023-07-13T21:37:08;46.92;;;18.88;;
41059;SDS011;26811;53.160;8.202;2023-07-13T21:42:19;45.92;;;16.75;;
41059;SDS011;26811;53.160;8.202;2023-07-13T21:47:19;43.35;;;17.73;;
41059;SDS011;26811;53.160;8.202;2023-07-13T21:52:20;43.72;;;17.00;;
41059;SDS011;26811;53.160;8.202;2023-07-13T21:57:21;45.70;;;17.92;;
41059;SDS011;26811;53.160;8.202;2023-07-13T22:02:21;42.70;;;18.05;;
41059;SDS011;26811;53.160;8.202;2023-07-13T22:07:22;40.60;;;18.05;;
41059;SDS011;26811;53.160;8.202;2023-07-13T22:12:23;46.90;;;19.05;;
41059;SDS011;26811;53.160;8.202;2023-07-13T22:17:24;47.47;;;18.20;;
41059;SDS011;26811;53.160;8.202;2023-07-13T22:22:25;40.00;;;17.42;;
41059;SDS011;26811;53.160;8.202;2023-07-13T22:27:27;44.20;;;18.47;;
41059;SDS011;26811;53.160;8.202;2023-07-13T22:32:29;43.25;;;17.05;;
41059;SDS011;26811;53.160;8.202;2023-07-13T22:37:29;60.20;;;19.17;;
41059;SDS011;26811;53.160;8.202;2023-07-13T22:42:30;45.85;;;18.02;;
41059;SDS011;26811;53.160;8.202;2023-07-13T22:47:30;50.95;;;19.48;;
41059;SDS011;26811;53.160;8.202;2023-07-13T22:52:31;47.42;;;17.13;;
41059;SDS011;26811;53.160;8.202;2023-07-13T22:57:35;46.85;;;17.48;;
41059;SDS011;26811;53.160;8.202;2023-07-13T23:02:36;52.70;;;17.63;;
41059;SDS011;26811;53.160;8.202;2023-07-13T23:07:36;47.17;;;18.60;;
41059;SDS011;26811;53.160;8.202;2023-07-13T23:12:38;54.78;;;18.65;;
41059;SDS011;26811;53.160;8.202;2023-07-13T23:17:42;47.35;;;18.13;;
41059;SDS011;26811;53.160;8.202;2023-07-13T23:22:42;49.92;;;18.02;;
41059;SDS011;26811;53.160;8.202;2023-07-13T23:27:43;46.35;;;18.50;;
41059;SDS011;26811;53.160;8.202;2023-07-13T23:32:44;43.40;;;17.63;;
41059;SDS011;26811;53.160;8.202;2023-07-13T23:37:46;52.67;;;18.87;;
41059;SDS011;26811;53.160;8.202;2023-07-13T23:42:46;37.67;;;17.50;;
41059;SDS011;26811;53.160;8.202;2023-07-13T23:47:48;37.97;;;16.88;;
41059;SDS011;26811;53.160;8.202;2023-07-13T23:52:50;47.25;;;17.55;;
41059;SDS011;26811;53.160;8.202;2023-07-13T23:57:51;61.72;;;18.45;;
